Startpagina
METAR-TAF:

METAR-TAF

Vliegvelden :

Aeropuerto Antonio Nariño

Pasto, Colombia

breedte: 01-25N, lengte: 077-16W, hoogte: 1826 m

Actueel weer

Dit bericht is 1 uur en het 32 minuten geleden gemaakt, om 23:00 UTC
Wind 5 kt uit het oostnoordoosten
Temperatuur 19°C
Vochtigheid 88%
Druk 1020 hPa
Zicht 10 km of meer
Gebroken wolken op 2000 ft

METAR: SKPS 152300Z 07005KT 9999 BKN020 19/17 A3012

Tijdstip: 19:32 (00:32 UTC)


TAF: ontbreekt

Waarnemingen en weersverwachtingen van meer dan 4000 vliegvelden (METAR en TAF).

De beschikbare stations zijn de gele en rode punten op de kaart.

Ga met uw muis naar het station om de naam te zien.

Klik dan om waarnemingen en weersverwachtingen te zien.

kaart wijzigen: klik op de groene knoppen met een zwart kruis om in te zoomen, op de groene knop met een streepje om uit te zoomen of op de groene pijlen voor aangrenzende kaarten.


METAR-TAF: